Alabaster, Alabama
Current Conditions -  °F | °C
As of 6:53 PM on Friday 28 Nov 2014 (Local Time) from KEET Reporting Station
Clear Clear  
Wind Chill:   Ceiling: Unl
Heat Index:   Visibility: 10mi
Dew Point: -2°   Wind: 0mph
Humidity: 65%   Direction: NA
Pressure: 30.28"   Gusts: NA
Location:  33.25°N, 86.82°W
Report Text: KEET 290053Z AUTO 00000KT 10SM CLR 04/M02 A3028 RMK AO2 SLP258 T00441017
Loading
Personal Weather Stations






























Interactive Weather Map New forecast layout! Learn more

10-Day Weather Forecast

Advertisements
Track Severe Weather on mobile